Terminal Aerodrome Forecast
Issued by NWS Atlanta, GA

Home | Current Version | Previous Version | Text Only | Print | Product List | Glossary On
Versions: 1 2 3 4 5 6 7 8 9 10 11 12 13 14 15 16 17
000
FTUS42 KFFC 041121
TAFCSG
TAF
KCSG 041121Z 0412/0512 VRB03KT P6SM SCT250
     FM041400 32003KT P6SM FEW250
     FM041700 26005KT P6SM SCT050
     FM050200 00000KT P6SM FEW080 FEW250=

USA.gov is the U.S. government's official web portal to all federal, state and local government web resources and services.